Terminal Aerodrome Forecast
Issued by NWS

Home | Current Version | Previous Version | Text Only | Print | Product List | Glossary On
Versions: 1 2 3 4 5 6 7 8 9 10 11 12 13 14 15
000
FTUS45 KGJT 272325
TAFCNY
TAF
KCNY 272325Z 2800/2824 27007KT P6SM SKC
     FM280800 00000KT P6SM FEW250
     FM282200 18006KT P6SM BKN250
     FM282300 24007KT P6SM BKN250=

USA.gov is the U.S. government's official web portal to all federal, state and local government web resources and services.